Decoded Metar for LFRJ (LANDIVISIAU in FRANCE) (IATA:N/A) | Meteo·Mobile Aviation Weather
aviador You're here:

LFRJ Decoded Metar

LANDIVISIAU in FRANCE
Report Time2018-11-19 22:00:00
UTC Time2018-11-19 22:28:13
Flight Rules vfr VFR
Wind100° at 02 kt
W.Decomp.*RWY 08: 1.9 kt HW 0.7 kt RCW
W.Rank100° ranks 36
Current wind is below 100° avg. (5.9)
Visibility9999 m
Phenomena:N/A
Clouds:N/A
Expected CloudBase > 800 ft AGL from Temp-Dew spread
CeilingNone
Temp02°C (ISA -12)
Dew Point00°C (87% RH)
AAT-0.7°C
QNH1010 hPa
Density Alt-925 ft
Elevation377 ft
Report Wrong Elevation
Raw Report
METAR LFRJ 192200Z AUTO 10002KT CAVOK 02/M00 Q1010=

Extra information for LFRJ:More info

Metar Taf Metar & Taf Last 4 Metars F.Rules Stats Wind Profile Meteogram Temp Stats Airport Information Weather charts Add Link Nearby VenuesMetar ALERT Operation Metar Decoded Social comments